Nearby METAR Reports

 

KAVP - Avoca/Wilkes B., Pennsylvania, USA
Distance from station: N 16mi, 25km
Updated: 10/17/2019 12:11am
NOT Current
Overcast
Overcast
 Wind from WNW
Wind: WNW 6 mph , 9 km/h
Temperature: 48°F , 9°C
Wind Chill: 45°F , 7°C
Dew Point: 43°F , 6°C
Humidity: 82%
Barometer: 29.41 inHg , 995.9 hPa
Clouds: Overcast
Visibility: 10 miles , 16 km
Cloud details: Mostly cloudy 2500 ft
Mostly cloudy 3100 ft
Overcast 4800 ft
2019/10/17 04:11 KAVP 170411Z 29005KT 10SM BKN025 BKN031 OVC048 09/06 A2941 RMK AO2 T00940061
KMPO - Mt. Pocono, Pennsylvania, USA
Distance from station: E 20mi, 33km
Updated: 10/16/2019 10:53pm
NOT Current
Light rain, Overcast
Light rain, Overcast
 Wind from WNW
Wind: WNW 30 mph , 48 km/h, Gust: 41 mph , 67 km/h
Temperature: 45°F , 7°C
Wind Chill: 35°F , 2°C
Dew Point: 43°F , 6°C
Humidity: 93%
Barometer: 29.36 inHg , 994.2 hPa
Summary: Light rain
Clouds: Overcast
Visibility: 10 miles , 16 km
Cloud details: Partly cloudy 1200 ft
Mostly cloudy 1900 ft
Overcast 3000 ft
2019/10/17 02:53 KMPO 170253Z AUTO 30026G36KT 10SM -RA SCT012 BKN019 OVC030 07/06 A2936 RMK AO2 PK WND 30036/0252 SLP944 P0003 60032 T00720061 56020
 
KABE - Allentown, Pennsylvania, USA
Distance from station: SSE 36mi, 58km
Updated: 10/16/2019 11:51pm
NOT Current
Mostly cloudy
Mostly cloudy
 Wind from WNW
Wind: WNW 13 mph , 20 km/h, Gust: 22 mph , 35 km/h
Temperature: 52°F , 11°C
Dew Point: 39°F , 4°C
Humidity: 62%
Barometer: 29.39 inHg , 995.3 hPa
Clouds: Mostly cloudy
Visibility: 10 miles , 16 km
Cloud details: Mostly cloudy 4600 ft
2019/10/17 03:51 KABE 170351Z 29011G19KT 10SM BKN046 11/04 A2939 RMK AO2 PK WND 29029/0339 SLP951 T01060039 $
KXLL - Allentown Queen, Pennsylvania, USA
Distance from station: SSE 41mi, 65km
Updated: 10/17/2019 1:15am
Overcast
Overcast
 Wind from WNW
Wind: WNW 14 mph , 22 km/h, Gust: 20 mph , 31 km/h
Temperature: 50°F , 10°C
Wind Chill: 45°F , 7°C
Dew Point: 41°F , 5°C
Humidity: 71%
Barometer: 29.42 inHg , 996.3 hPa
Clouds: Overcast
Visibility: 10 miles , 16 km
Cloud details: Overcast 3900 ft
2019/10/17 05:15 KXLL 170515Z AUTO 29012G17KT 10SM OVC039 10/05 A2942 RMK AO2 P0004